sensor_id;sensor_type;location;lat;lon;timestamp;pressure;altitude;pressure_sealevel;temperature
48854;BMP280;34673;52.808;17.856;2023-06-14T00:02:19;100673.09;;;16.08
48854;BMP280;34673;52.808;17.856;2023-06-14T00:04:46;100666.16;;;16.07
48854;BMP280;34673;52.808;17.856;2023-06-14T00:07:15;100664.50;;;16.04
48854;BMP280;34673;52.808;17.856;2023-06-14T00:09:43;100661.00;;;16.04
48854;BMP280;34673;52.808;17.856;2023-06-14T00:12:10;100658.53;;;15.98
48854;BMP280;34673;52.808;17.856;2023-06-14T00:14:38;100666.38;;;15.98
48854;BMP280;34673;52.808;17.856;2023-06-14T00:17:05;100660.56;;;15.86
48854;BMP280;34673;52.808;17.856;2023-06-14T00:19:34;100651.94;;;15.84
48854;BMP280;34673;52.808;17.856;2023-06-14T00:22:03;100648.50;;;15.82
48854;BMP280;34673;52.808;17.856;2023-06-14T00:24:31;100650.25;;;15.82
48854;BMP280;34673;52.808;17.856;2023-06-14T00:26:58;100652.91;;;15.80
48854;BMP280;34673;52.808;17.856;2023-06-14T00:29:25;100652.91;;;15.80
48854;BMP280;34673;52.808;17.856;2023-06-14T00:31:52;100651.25;;;15.76
48854;BMP280;34673;52.808;17.856;2023-06-14T00:34:20;100651.25;;;15.76
48854;BMP280;34673;52.808;17.856;2023-06-14T00:36:47;100652.16;;;15.75
48854;BMP280;34673;52.808;17.856;2023-06-14T00:39:14;100646.03;;;15.76
48854;BMP280;34673;52.808;17.856;2023-06-14T00:41:42;100640.75;;;15.79
48854;BMP280;34673;52.808;17.856;2023-06-14T00:44:09;100633.06;;;15.75
48854;BMP280;34673;52.808;17.856;2023-06-14T00:46:36;100632.25;;;15.71
48854;BMP280;34673;52.808;17.856;2023-06-14T00:49:04;100633.16;;;15.70
48854;BMP280;34673;52.808;17.856;2023-06-14T00:51:32;100619.31;;;15.66
48854;BMP280;34673;52.808;17.856;2023-06-14T00:53:59;100627.03;;;15.71
48854;BMP280;34673;52.808;17.856;2023-06-14T00:56:27;100616.59;;;15.71
48854;BMP280;34673;52.808;17.856;2023-06-14T00:58:56;100622.69;;;15.71
48854;BMP280;34673;52.808;17.856;2023-06-14T01:01:23;100610.44;;;15.75
48854;BMP280;34673;52.808;17.856;2023-06-14T01:03:51;100614.81;;;15.73
48854;BMP280;34673;52.808;17.856;2023-06-14T01:06:41;100618.34;;;15.72
48854;BMP280;34673;52.808;17.856;2023-06-14T01:09:15;100612.31;;;15.68
48854;BMP280;34673;52.808;17.856;2023-06-14T01:12:02;100606.31;;;15.65
48854;BMP280;34673;52.808;17.856;2023-06-14T01:14:34;100610.59;;;15.69
48854;BMP280;34673;52.808;17.856;2023-06-14T01:17:02;100613.22;;;15.66
48854;BMP280;34673;52.808;17.856;2023-06-14T01:19:30;100594.09;;;15.67
48854;BMP280;34673;52.808;17.856;2023-06-14T01:22:01;100602.78;;;15.69
48854;BMP280;34673;52.808;17.856;2023-06-14T01:24:29;100599.31;;;15.67
48854;BMP280;34673;52.808;17.856;2023-06-14T01:26:59;100594.94;;;15.67
48854;BMP280;34673;52.808;17.856;2023-06-14T01:29:29;100592.44;;;15.63
48854;BMP280;34673;52.808;17.856;2023-06-14T01:32:00;100592.44;;;15.63
48854;BMP280;34673;52.808;17.856;2023-06-14T01:34:30;100591.47;;;15.67
48854;BMP280;34673;52.808;17.856;2023-06-14T01:37:00;100599.31;;;15.67
48854;BMP280;34673;52.808;17.856;2023-06-14T01:39:28;100586.25;;;15.67
48854;BMP280;34673;52.808;17.856;2023-06-14T01:41:57;100590.66;;;15.65
48854;BMP280;34673;52.808;17.856;2023-06-14T01:44:26;100581.94;;;15.66
48854;BMP280;34673;52.808;17.856;2023-06-14T01:46:54;100580.16;;;15.68
48854;BMP280;34673;52.808;17.856;2023-06-14T01:49:22;100582.75;;;15.68
48854;BMP280;34673;52.808;17.856;2023-06-14T01:51:49;100576.09;;;15.56
48854;BMP280;34673;52.808;17.856;2023-06-14T01:54:17;100575.34;;;15.52
48854;BMP280;34673;52.808;17.856;2023-06-14T01:56:44;100585.88;;;15.46
48854;BMP280;34673;52.808;17.856;2023-06-14T01:59:11;100588.56;;;15.45
48854;BMP280;34673;52.808;17.856;2023-06-14T02:01:38;100578.97;;;15.45
48854;BMP280;34673;52.808;17.856;2023-06-14T02:04:06;100587.75;;;15.41
48854;BMP280;34673;52.808;17.856;2023-06-14T02:06:33;100583.44;;;15.40
48854;BMP280;34673;52.808;17.856;2023-06-14T02:09:01;100580.91;;;15.37
48854;BMP280;34673;52.808;17.856;2023-06-14T02:11:29;100575.84;;;15.31
48854;BMP280;34673;52.808;17.856;2023-06-14T02:13:57;100591.41;;;15.34
48854;BMP280;34673;52.808;17.856;2023-06-14T02:16:27;100579.41;;;15.27
48854;BMP280;34673;52.808;17.856;2023-06-14T02:18:56;100586.28;;;15.31
48854;BMP280;34673;52.808;17.856;2023-06-14T02:21:24;100589.75;;;15.30
48854;BMP280;34673;52.808;17.856;2023-06-14T02:23:51;100585.38;;;15.32
48854;BMP280;34673;52.808;17.856;2023-06-14T02:26:19;100588.81;;;15.34
48854;BMP280;34673;52.808;17.856;2023-06-14T02:28:47;100599.19;;;15.36
48854;BMP280;34673;52.808;17.856;2023-06-14T02:31:14;100599.19;;;15.36
48854;BMP280;34673;52.808;17.856;2023-06-14T02:33:42;100600.84;;;15.40
48854;BMP280;34673;52.808;17.856;2023-06-14T02:36:09;100597.22;;;15.45
48854;BMP280;34673;52.808;17.856;2023-06-14T02:38:36;100587.63;;;15.47
48854;BMP280;34673;52.808;17.856;2023-06-14T02:41:03;100582.34;;;15.50
48854;BMP280;34673;52.808;17.856;2023-06-14T02:43:33;100577.03;;;15.54
48854;BMP280;34673;52.808;17.856;2023-06-14T02:46:00;100576.03;;;15.58
48854;BMP280;34673;52.808;17.856;2023-06-14T02:48:27;100576.88;;;15.60
48854;BMP280;34673;52.808;17.856;2023-06-14T02:50:55;100579.41;;;15.63
48854;BMP280;34673;52.808;17.856;2023-06-14T02:53:23;100585.59;;;15.59
48854;BMP280;34673;52.808;17.856;2023-06-14T02:55:50;100554.69;;;15.43
48854;BMP280;34673;52.808;17.856;2023-06-14T02:58:19;100571.81;;;15.54
48854;BMP280;34673;52.808;17.856;2023-06-14T03:00:47;100571.81;;;15.54
48854;BMP280;34673;52.808;17.856;2023-06-14T03:03:14;100568.31;;;15.55
48854;BMP280;34673;52.808;17.856;2023-06-14T03:05:50;100564.81;;;15.56
48854;BMP280;34673;52.808;17.856;2023-06-14T03:08:22;100564.75;;;15.59
48854;BMP280;34673;52.808;17.856;2023-06-14T03:10:56;100568.19;;;15.61
48854;BMP280;34673;52.808;17.856;2023-06-14T03:13:25;100568.97;;;15.63
48854;BMP280;34673;52.808;17.856;2023-06-14T03:15:53;100569.72;;;15.68
48854;BMP280;34673;52.808;17.856;2023-06-14T03:18:24;100570.69;;;15.64
48854;BMP280;34673;52.808;17.856;2023-06-14T03:20:55;100578.44;;;15.67
48854;BMP280;34673;52.808;17.856;2023-06-14T03:23:25;100580.09;;;15.71
48854;BMP280;34673;52.808;17.856;2023-06-14T03:25:53;100579.16;;;15.73
48854;BMP280;34673;52.808;17.856;2023-06-14T03:28:21;100576.69;;;15.69
48854;BMP280;34673;52.808;17.856;2023-06-14T03:30:49;100585.22;;;15.74
48854;BMP280;34673;52.808;17.856;2023-06-14T03:33:17;100546.69;;;15.51
48854;BMP280;34673;52.808;17.856;2023-06-14T03:35:44;100585.22;;;15.74
48854;BMP280;34673;52.808;17.856;2023-06-14T03:38:12;100581.91;;;15.69
48854;BMP280;34673;52.808;17.856;2023-06-14T03:40:39;100581.84;;;15.70
48854;BMP280;34673;52.808;17.856;2023-06-14T03:43:06;100588.66;;;15.76
48854;BMP280;34673;52.808;17.856;2023-06-14T03:45:34;100588.66;;;15.76
48854;BMP280;34673;52.808;17.856;2023-06-14T03:48:01;100582.69;;;15.71
48854;BMP280;34673;52.808;17.856;2023-06-14T03:50:30;100589.50;;;15.77
48854;BMP280;34673;52.808;17.856;2023-06-14T03:52:59;100592.09;;;15.78
48854;BMP280;34673;52.808;17.856;2023-06-14T03:55:28;100595.59;;;15.77
48854;BMP280;34673;52.808;17.856;2023-06-14T03:58:02;100596.47;;;15.78
48854;BMP280;34673;52.808;17.856;2023-06-14T04:00:29;100611.19;;;15.80
48854;BMP280;34673;52.808;17.856;2023-06-14T04:02:57;100608.59;;;15.79
48854;BMP280;34673;52.808;17.856;2023-06-14T04:05:24;100607.75;;;15.77
48854;BMP280;34673;52.808;17.856;2023-06-14T04:07:55;100606.09;;;15.74
48854;BMP280;34673;52.808;17.856;2023-06-14T04:10:23;100611.97;;;15.82
48854;BMP280;34673;52.808;17.856;2023-06-14T04:12:50;100619.75;;;15.85
48854;BMP280;34673;52.808;17.856;2023-06-14T04:15:18;100619.75;;;15.85
48854;BMP280;34673;52.808;17.856;2023-06-14T04:17:52;100616.22;;;15.86
48854;BMP280;34673;52.808;17.856;2023-06-14T04:20:22;100617.91;;;15.89
48854;BMP280;34673;52.808;17.856;2023-06-14T04:22:51;100624.88;;;15.88
48854;BMP280;34673;52.808;17.856;2023-06-14T04:25:20;100610.97;;;15.88
48854;BMP280;34673;52.808;17.856;2023-06-14T04:27:51;100614.44;;;15.88
48854;BMP280;34673;52.808;17.856;2023-06-14T04:30:21;100621.41;;;15.88
48854;BMP280;34673;52.808;17.856;2023-06-14T04:32:54;100622.38;;;15.84
48854;BMP280;34673;52.808;17.856;2023-06-14T04:35:23;100610.25;;;15.83
48854;BMP280;34673;52.808;17.856;2023-06-14T04:37:52;100603.34;;;15.80
48854;BMP280;34673;52.808;17.856;2023-06-14T04:40:21;100600.75;;;15.80
48854;BMP280;34673;52.808;17.856;2023-06-14T04:42:48;100606.66;;;15.87
48854;BMP280;34673;52.808;17.856;2023-06-14T04:45:18;100605.78;;;15.86
48854;BMP280;34673;52.808;17.856;2023-06-14T04:47:46;100610.00;;;15.92
48854;BMP280;34673;52.808;17.856;2023-06-14T04:50:14;100613.28;;;15.99
48854;BMP280;34673;52.808;17.856;2023-06-14T04:52:41;100600.00;;;16.08
48854;BMP280;34673;52.808;17.856;2023-06-14T04:55:10;100591.28;;;16.09
48854;BMP280;34673;52.808;17.856;2023-06-14T04:57:37;100598.13;;;16.13
48854;BMP280;34673;52.808;17.856;2023-06-14T05:00:07;100605.78;;;16.19
48854;BMP280;34673;52.808;17.856;2023-06-14T05:02:36;100616.91;;;16.26
48854;BMP280;34673;52.808;17.856;2023-06-14T05:05:05;100611.75;;;16.24
48854;BMP280;34673;52.808;17.856;2023-06-14T05:07:33;100611.56;;;16.30
48854;BMP280;34673;52.808;17.856;2023-06-14T05:10:01;100616.69;;;16.33
48854;BMP280;34673;52.808;17.856;2023-06-14T05:12:29;100618.44;;;16.34
48854;BMP280;34673;52.808;17.856;2023-06-14T05:14:57;100625.44;;;16.32
48854;BMP280;34673;52.808;17.856;2023-06-14T05:17:26;100626.28;;;16.33
48854;BMP280;34673;52.808;17.856;2023-06-14T05:19:54;100618.44;;;16.34
48854;BMP280;34673;52.808;17.856;2023-06-14T05:22:22;100621.94;;;16.33
48854;BMP280;34673;52.808;17.856;2023-06-14T05:24:50;100609.69;;;16.35
48854;BMP280;34673;52.808;17.856;2023-06-14T05:27:17;100608.78;;;16.36
48854;BMP280;34673;52.808;17.856;2023-06-14T05:29:45;100611.38;;;16.36
48854;BMP280;34673;52.808;17.856;2023-06-14T05:32:12;100614.06;;;16.35
48854;BMP280;34673;52.808;17.856;2023-06-14T05:34:40;100606.16;;;16.36
48854;BMP280;34673;52.808;17.856;2023-06-14T05:37:07;100592.47;;;16.28
48854;BMP280;34673;52.808;17.856;2023-06-14T05:39:35;100608.78;;;16.36
48854;BMP280;34673;52.808;17.856;2023-06-14T05:42:02;100613.13;;;16.37
48854;BMP280;34673;52.808;17.856;2023-06-14T05:44:29;100613.22;;;16.34
48854;BMP280;34673;52.808;17.856;2023-06-14T05:46:57;100618.34;;;16.37
48854;BMP280;34673;52.808;17.856;2023-06-14T05:49:24;100625.28;;;16.38
48854;BMP280;34673;52.808;17.856;2023-06-14T05:51:52;100623.47;;;16.40
48854;BMP280;34673;52.808;17.856;2023-06-14T05:54:19;100619.88;;;16.45
48854;BMP280;34673;52.808;17.856;2023-06-14T05:56:46;100619.88;;;16.45
48854;BMP280;34673;52.808;17.856;2023-06-14T05:59:14;100615.47;;;16.47
48854;BMP280;34673;52.808;17.856;2023-06-14T06:01:41;100626.47;;;16.58
48854;BMP280;34673;52.808;17.856;2023-06-14T06:04:09;100624.47;;;16.66
48854;BMP280;34673;52.808;17.856;2023-06-14T06:06:36;100620.91;;;16.70
48854;BMP280;34673;52.808;17.856;2023-06-14T06:09:04;100624.22;;;16.75
48854;BMP280;34673;52.808;17.856;2023-06-14T06:11:32;100623.13;;;16.84
48854;BMP280;34673;52.808;17.856;2023-06-14T06:14:14;100630.66;;;16.95
48854;BMP280;34673;52.808;17.856;2023-06-14T06:16:42;100632.09;;;17.05
48854;BMP280;34673;52.808;17.856;2023-06-14T06:19:09;100628.28;;;17.15
48854;BMP280;34673;52.808;17.856;2023-06-14T06:21:36;100626.38;;;17.20
48854;BMP280;34673;52.808;17.856;2023-06-14T06:24:05;100617.75;;;17.18
48854;BMP280;34673;52.808;17.856;2023-06-14T06:26:32;100627.91;;;17.27
48854;BMP280;34673;52.808;17.856;2023-06-14T06:29:00;100625.91;;;17.36
48854;BMP280;34673;52.808;17.856;2023-06-14T06:31:27;100608.00;;;17.50
48854;BMP280;34673;52.808;17.856;2023-06-14T06:33:55;100621.00;;;17.80
48854;BMP280;34673;52.808;17.856;2023-06-14T06:36:22;100619.91;;;17.87
48854;BMP280;34673;52.808;17.856;2023-06-14T06:38:50;100618.97;;;17.88
48854;BMP280;34673;52.808;17.856;2023-06-14T06:41:18;100631.19;;;17.89
48854;BMP280;34673;52.808;17.856;2023-06-14T06:43:46;100626.84;;;17.88
48854;BMP280;34673;52.808;17.856;2023-06-14T06:46:15;100627.75;;;17.87
48854;BMP280;34673;52.808;17.856;2023-06-14T06:48:45;100632.97;;;17.87
48854;BMP280;34673;52.808;17.856;2023-06-14T06:51:12;100629.44;;;17.88
48854;BMP280;34673;52.808;17.856;2023-06-14T06:53:42;100629.56;;;17.85
48854;BMP280;34673;52.808;17.856;2023-06-14T06:56:15;100621.00;;;17.80
48854;BMP280;34673;52.808;17.856;2023-06-14T06:58:42;100626.94;;;17.85
48854;BMP280;34673;52.808;17.856;2023-06-14T07:01:10;100640.03;;;17.85
48854;BMP280;34673;52.808;17.856;2023-06-14T07:03:37;100643.56;;;17.84
48854;BMP280;34673;52.808;17.856;2023-06-14T07:06:04;100643.66;;;17.81
48854;BMP280;34673;52.808;17.856;2023-06-14T07:08:32;100634.91;;;17.82
48854;BMP280;34673;52.808;17.856;2023-06-14T07:10:59;100641.06;;;17.81
48854;BMP280;34673;52.808;17.856;2023-06-14T07:13:27;100624.31;;;17.85
48854;BMP280;34673;52.808;17.856;2023-06-14T07:15:54;100631.19;;;17.89
48854;BMP280;34673;52.808;17.856;2023-06-14T07:18:24;100640.41;;;17.99
48854;BMP280;34673;52.808;17.856;2023-06-14T07:20:51;100646.16;;;18.10
48854;BMP280;34673;52.808;17.856;2023-06-14T07:23:19;100640.59;;;18.20
48854;BMP280;34673;52.808;17.856;2023-06-14T07:25:47;100643.78;;;18.28
48854;BMP280;34673;52.808;17.856;2023-06-14T07:28:14;100647.94;;;18.33
48854;BMP280;34673;52.808;17.856;2023-06-14T07:30:41;100632.25;;;18.33
48854;BMP280;34673;52.808;17.856;2023-06-14T07:33:09;100639.09;;;18.37
48854;BMP280;34673;52.808;17.856;2023-06-14T07:35:37;100636.16;;;18.45
48854;BMP280;34673;52.808;17.856;2023-06-14T07:38:08;100637.81;;;18.48
48854;BMP280;34673;52.808;17.856;2023-06-14T07:40:35;100646.44;;;18.51
48854;BMP280;34673;52.808;17.856;2023-06-14T07:43:03;100644.47;;;18.56
48854;BMP280;34673;52.808;17.856;2023-06-14T07:45:30;100652.19;;;18.61
48854;BMP280;34673;52.808;17.856;2023-06-14T07:47:58;100653.72;;;18.67
48854;BMP280;34673;52.808;17.856;2023-06-14T07:50:25;100656.16;;;18.73
48854;BMP280;34673;52.808;17.856;2023-06-14T07:52:52;100652.72;;;18.71
48854;BMP280;34673;52.808;17.856;2023-06-14T07:55:20;100656.78;;;18.79
48854;BMP280;34673;52.808;17.856;2023-06-14T07:57:47;100661.06;;;18.82
48854;BMP280;34673;52.808;17.856;2023-06-14T08:00:15;100655.81;;;18.82
48854;BMP280;34673;52.808;17.856;2023-06-14T08:02:43;100648.75;;;18.84
48854;BMP280;34673;52.808;17.856;2023-06-14T08:05:10;100648.28;;;18.96
48854;BMP280;34673;52.808;17.856;2023-06-14T08:07:39;100648.16;;;18.99
48854;BMP280;34673;52.808;17.856;2023-06-14T08:10:07;100636.66;;;19.03
48854;BMP280;34673;52.808;17.856;2023-06-14T08:12:34;100638.22;;;19.08
48854;BMP280;34673;52.808;17.856;2023-06-14T08:15:02;100630.25;;;19.11
48854;BMP280;34673;52.808;17.856;2023-06-14T08:17:41;100626.59;;;19.15
48854;BMP280;34673;52.808;17.856;2023-06-14T08:20:09;100633.53;;;19.16
48854;BMP280;34673;52.808;17.856;2023-06-14T08:22:38;100631.72;;;19.18
48854;BMP280;34673;52.808;17.856;2023-06-14T08:25:06;100624.94;;;19.12
48854;BMP280;34673;52.808;17.856;2023-06-14T08:27:34;100634.59;;;19.12
48854;BMP280;34673;52.808;17.856;2023-06-14T08:30:02;100636.41;;;19.10
48854;BMP280;34673;52.808;17.856;2023-06-14T08:32:30;100638.06;;;19.12
48854;BMP280;34673;52.808;17.856;2023-06-14T08:34:57;100634.75;;;19.07
48854;BMP280;34673;52.808;17.856;2023-06-14T08:37:32;100637.91;;;19.17
48854;BMP280;34673;52.808;17.856;2023-06-14T08:40:00;100642.09;;;19.21
48854;BMP280;34673;52.808;17.856;2023-06-14T08:42:32;100640.28;;;19.23
48854;BMP280;34673;52.808;17.856;2023-06-14T08:45:00;100639.34;;;19.24
48854;BMP280;34673;52.808;17.856;2023-06-14T08:47:27;100638.44;;;19.25
48854;BMP280;34673;52.808;17.856;2023-06-14T08:49:57;100646.31;;;19.25
48854;BMP280;34673;52.808;17.856;2023-06-14T08:52:27;100647.22;;;19.24
48854;BMP280;34673;52.808;17.856;2023-06-14T08:55:00;100650.75;;;19.23
48854;BMP280;34673;52.808;17.856;2023-06-14T08:57:29;100649.91;;;19.22
48854;BMP280;34673;52.808;17.856;2023-06-14T08:59:57;100641.97;;;19.24
48854;BMP280;34673;52.808;17.856;2023-06-14T09:02:28;100650.75;;;19.23
48854;BMP280;34673;52.808;17.856;2023-06-14T09:04:56;100646.31;;;19.25
48854;BMP280;34673;52.808;17.856;2023-06-14T09:07:26;100649.97;;;19.21
48854;BMP280;34673;52.808;17.856;2023-06-14T09:10:11;100654.31;;;19.22
48854;BMP280;34673;52.808;17.856;2023-06-14T09:12:39;100654.19;;;19.25
48854;BMP280;34673;52.808;17.856;2023-06-14T09:15:07;100662.72;;;19.30
48854;BMP280;34673;52.808;17.856;2023-06-14T09:17:36;100662.72;;;19.30
48854;BMP280;34673;52.808;17.856;2023-06-14T09:20:05;100661.50;;;19.39
48854;BMP280;34673;52.808;17.856;2023-06-14T09:22:33;100653.34;;;19.46
48854;BMP280;34673;52.808;17.856;2023-06-14T09:25:01;100661.13;;;19.70
48854;BMP280;34673;52.808;17.856;2023-06-14T09:27:29;100650.94;;;19.84
48854;BMP280;34673;52.808;17.856;2023-06-14T09:29:58;100643.72;;;20.10
48854;BMP280;34673;52.808;17.856;2023-06-14T09:32:26;100646.13;;;20.35
48854;BMP280;34673;52.808;17.856;2023-06-14T09:34:54;100638.91;;;20.61
48854;BMP280;34673;52.808;17.856;2023-06-14T09:37:32;100639.47;;;20.86
48854;BMP280;34673;52.808;17.856;2023-06-14T09:40:00;100622.16;;;21.01
48854;BMP280;34673;52.808;17.856;2023-06-14T09:42:27;100621.09;;;21.22
48854;BMP280;34673;52.808;17.856;2023-06-14T09:44:56;100615.13;;;21.38
48854;BMP280;34673;52.808;17.856;2023-06-14T09:47:24;100622.13;;;21.39
48854;BMP280;34673;52.808;17.856;2023-06-14T09:49:52;100618.53;;;21.40
48854;BMP280;34673;52.808;17.856;2023-06-14T09:52:22;100619.03;;;21.48
48854;BMP280;34673;52.808;17.856;2023-06-14T09:54:50;100619.97;;;21.64
48854;BMP280;34673;52.808;17.856;2023-06-14T09:57:23;100618.59;;;21.75
48854;BMP280;34673;52.808;17.856;2023-06-14T09:59:57;100623.22;;;21.87
48854;BMP280;34673;52.808;17.856;2023-06-14T10:02:36;100615.47;;;22.01
48854;BMP280;34673;52.808;17.856;2023-06-14T10:05:11;100616.84;;;22.08
48854;BMP280;34673;52.808;17.856;2023-06-14T10:07:53;100617.50;;;21.96
48854;BMP280;34673;52.808;17.856;2023-06-14T10:10:23;100608.69;;;21.80
48854;BMP280;34673;52.808;17.856;2023-06-14T10:12:50;100611.75;;;21.71
48854;BMP280;34673;52.808;17.856;2023-06-14T10:18:31;100607.88;;;21.60
48854;BMP280;34673;52.808;17.856;2023-06-14T10:21:13;100610.66;;;21.57
48854;BMP280;34673;52.808;17.856;2023-06-14T10:23:45;100606.03;;;21.62
48854;BMP280;34673;52.808;17.856;2023-06-14T10:26:22;100608.50;;;21.65
48854;BMP280;34673;52.808;17.856;2023-06-14T10:29:00;100613.00;;;21.63
48854;BMP280;34673;52.808;17.856;2023-06-14T10:34:09;100611.91;;;21.50
48854;BMP280;34673;52.808;17.856;2023-06-14T10:36:38;100612.81;;;21.49
48854;BMP280;34673;52.808;17.856;2023-06-14T10:39:17;100612.06;;;21.47
48854;BMP280;34673;52.808;17.856;2023-06-14T10:41:55;100609.56;;;21.44
48854;BMP280;34673;52.808;17.856;2023-06-14T10:46:53;100602.09;;;21.35
48854;BMP280;34673;52.808;17.856;2023-06-14T10:49:37;100610.00;;;21.35
48854;BMP280;34673;52.808;17.856;2023-06-14T10:52:13;100602.31;;;21.30
48854;BMP280;34673;52.808;17.856;2023-06-14T10:57:53;100607.03;;;21.23
48854;BMP280;34673;52.808;17.856;2023-06-14T11:00:28;100614.97;;;21.22
48854;BMP280;34673;52.808;17.856;2023-06-14T11:05:54;100601.91;;;21.20
48854;BMP280;34673;52.808;17.856;2023-06-14T11:11:12;100604.91;;;21.13
48854;BMP280;34673;52.808;17.856;2023-06-14T11:13:45;100605.75;;;21.13
48854;BMP280;34673;52.808;17.856;2023-06-14T11:16:17;100597.81;;;21.15
48854;BMP280;34673;52.808;17.856;2023-06-14T11:18:46;100599.28;;;21.20
48854;BMP280;34673;52.808;17.856;2023-06-14T11:21:17;100601.63;;;21.27
48854;BMP280;34673;52.808;17.856;2023-06-14T11:23:51;100601.47;;;21.30
48854;BMP280;34673;52.808;17.856;2023-06-14T11:26:29;100603.88;;;21.34
48854;BMP280;34673;52.808;17.856;2023-06-14T11:28:58;100597.50;;;21.40
48854;BMP280;34673;52.808;17.856;2023-06-14T11:31:27;100597.44;;;21.59
48854;BMP280;34673;52.808;17.856;2023-06-14T11:33:56;100596.56;;;21.76
48854;BMP280;34673;52.808;17.856;2023-06-14T11:36:31;100592.31;;;21.90
48854;BMP280;34673;52.808;17.856;2023-06-14T11:39:03;100604.00;;;21.85
48854;BMP280;34673;52.808;17.856;2023-06-14T11:41:37;100596.13;;;21.67
48854;BMP280;34673;52.808;17.856;2023-06-14T11:44:06;100599.13;;;21.60
48854;BMP280;34673;52.808;17.856;2023-06-14T11:46:34;100600.28;;;21.54
48854;BMP280;34673;52.808;17.856;2023-06-14T11:49:09;100599.97;;;21.60
48854;BMP280;34673;52.808;17.856;2023-06-14T11:51:37;100589.69;;;21.73
48854;BMP280;34673;52.808;17.856;2023-06-14T11:54:05;100591.44;;;21.90
48854;BMP280;34673;52.808;17.856;2023-06-14T11:56:33;100584.00;;;22.16
48854;BMP280;34673;52.808;17.856;2023-06-14T11:59:02;100581.78;;;22.41
48854;BMP280;34673;52.808;17.856;2023-06-14T12:01:30;100584.69;;;22.52
48854;BMP280;34673;52.808;17.856;2023-06-14T12:03:59;100584.69;;;22.52
48854;BMP280;34673;52.808;17.856;2023-06-14T12:06:29;100578.91;;;22.62
48854;BMP280;34673;52.808;17.856;2023-06-14T12:09:04;100569.72;;;22.69
48854;BMP280;34673;52.808;17.856;2023-06-14T12:11:34;100563.94;;;22.78
48854;BMP280;34673;52.808;17.856;2023-06-14T12:14:04;100562.09;;;22.80
48854;BMP280;34673;52.808;17.856;2023-06-14T12:16:33;100568.13;;;22.98
48854;BMP280;34673;52.808;17.856;2023-06-14T12:19:16;100562.84;;;23.14
48854;BMP280;34673;52.808;17.856;2023-06-14T12:21:46;100569.38;;;23.22
48854;BMP280;34673;52.808;17.856;2023-06-14T12:24:16;100557.78;;;23.25
48854;BMP280;34673;52.808;17.856;2023-06-14T12:26:43;100569.13;;;23.27
48854;BMP280;34673;52.808;17.856;2023-06-14T12:29:12;100561.72;;;23.18
48854;BMP280;34673;52.808;17.856;2023-06-14T12:31:40;100559.38;;;22.97
48854;BMP280;34673;52.808;17.856;2023-06-14T12:34:09;100564.63;;;22.82
48854;BMP280;34673;52.808;17.856;2023-06-14T12:36:37;100553.06;;;22.68
48854;BMP280;34673;52.808;17.856;2023-06-14T12:39:09;100557.47;;;22.68
48854;BMP280;34673;52.808;17.856;2023-06-14T12:41:36;100566.34;;;22.67
48854;BMP280;34673;52.808;17.856;2023-06-14T12:44:04;100562.41;;;22.58
48854;BMP280;34673;52.808;17.856;2023-06-14T12:46:31;100562.31;;;22.60
48854;BMP280;34673;52.808;17.856;2023-06-14T12:48:59;100557.81;;;22.62
48854;BMP280;34673;52.808;17.856;2023-06-14T12:51:27;100555.38;;;22.59
48854;BMP280;34673;52.808;17.856;2023-06-14T12:53:54;100555.06;;;22.47
48854;BMP280;34673;52.808;17.856;2023-06-14T12:56:22;100554.94;;;22.50
48854;BMP280;34673;52.808;17.856;2023-06-14T12:58:50;100558.47;;;22.49
48854;BMP280;34673;52.808;17.856;2023-06-14T13:01:18;100558.06;;;22.41
48854;BMP280;34673;52.808;17.856;2023-06-14T13:03:46;100558.56;;;22.32
48854;BMP280;34673;52.808;17.856;2023-06-14T13:06:14;100568.81;;;22.21
48854;BMP280;34673;52.808;17.856;2023-06-14T13:08:42;100566.19;;;22.03
48854;BMP280;34673;52.808;17.856;2023-06-14T13:11:09;100563.41;;;21.89
48854;BMP280;34673;52.808;17.856;2023-06-14T13:13:37;100567.44;;;21.79
48854;BMP280;34673;52.808;17.856;2023-06-14T13:16:04;100553.22;;;21.83
48854;BMP280;34673;52.808;17.856;2023-06-14T13:18:31;100558.16;;;21.89
48854;BMP280;34673;52.808;17.856;2023-06-14T13:20:59;100557.66;;;21.98
48854;BMP280;34673;52.808;17.856;2023-06-14T13:23:26;100559.06;;;22.05
48854;BMP280;34673;52.808;17.856;2023-06-14T13:25:54;100547.50;;;22.08
48854;BMP280;34673;52.808;17.856;2023-06-14T13:28:21;100554.13;;;21.99
48854;BMP280;34673;52.808;17.856;2023-06-14T13:30:49;100545.44;;;21.97
48854;BMP280;34673;52.808;17.856;2023-06-14T13:33:16;100516.34;;;21.83
48854;BMP280;34673;52.808;17.856;2023-06-14T13:35:44;100539.56;;;21.92
48854;BMP280;34673;52.808;17.856;2023-06-14T13:38:11;100544.03;;;21.90
48854;BMP280;34673;52.808;17.856;2023-06-14T13:40:39;100548.25;;;21.77
48854;BMP280;34673;52.808;17.856;2023-06-14T13:43:06;100552.47;;;21.63
48854;BMP280;34673;52.808;17.856;2023-06-14T13:45:34;100556.47;;;21.53
48854;BMP280;34673;52.808;17.856;2023-06-14T13:48:02;100560.50;;;21.43
48854;BMP280;34673;52.808;17.856;2023-06-14T13:50:29;100558.31;;;21.34
48854;BMP280;34673;52.808;17.856;2023-06-14T13:52:57;100561.38;;;21.24
48854;BMP280;34673;52.808;17.856;2023-06-14T13:55:24;100549.72;;;21.11
48854;BMP280;34673;52.808;17.856;2023-06-14T13:57:51;100556.41;;;21.01
48854;BMP280;34673;52.808;17.856;2023-06-14T14:00:19;100551.69;;;20.89
48854;BMP280;34673;52.808;17.856;2023-06-14T14:02:49;100560.03;;;20.79
48854;BMP280;34673;52.808;17.856;2023-06-14T14:05:17;100558.75;;;20.69
48854;BMP280;34673;52.808;17.856;2023-06-14T14:07:45;100556.53;;;20.60
48854;BMP280;34673;52.808;17.856;2023-06-14T14:10:12;100561.28;;;20.52
48854;BMP280;34673;52.808;17.856;2023-06-14T14:12:43;100563.41;;;20.44